»·PEaware :: UAL533 KGEG-KSEA

UAL533 :: KGEG-KSEA

FLIGHT INFORMATION

Flight Status: Arrived
Operator:
United Airlines
More flights by this operator :: More flights under this callsign
Pilot: Maximilliano F. (23467)
Aircraft: BOEING 737-800
(B738)
More flights by this aircraft type
Origin: KGEG Spokane Intl
United States
Destination: KSEA Seattle-Tacoma Intl
United States
More flights between these airports :: More routes between these airports
Route: TEMPL GLASR1
File this flight plan on PilotEdge
Remarks: RMK / SIMBRIEF
Altitude:
(Current/Filed)
32,000ft
Speed:
(Current/Filed)
464kts
Departed: 15-Oct-19 09:05 PM
Arrived: 15-Oct-19 09:49 PM
Distance/Time
Traveled:
194nm/0:43
Distance/Time
To Go:
Arrived

Flight Plot

Page will automatically refresh every two minutes.

Flight plan parsing failed; only flown route is shown


Map Options




Map Legend


Flown Route
Filed Route
Departure Airport
Arrival Airport
Navaid (VOR, NDB)
Fix

Horizontal Profiles

Position Reports

Time Latitude Longitude Heading Altitude Ground
Speed
15-Oct-19 20:39 47.624435 -117.535389 311 2391ft 0kts
15-Oct-19 20:40 47.624435 -117.535389 311 2391ft 0kts
15-Oct-19 20:41 47.624435 -117.535389 311 2391ft 0kts
15-Oct-19 20:42 47.624435 -117.535389 311 2391ft 0kts
15-Oct-19 20:43 47.624435 -117.535389 311 2391ft 0kts
15-Oct-19 20:44 47.624435 -117.535389 311 2391ft 0kts
15-Oct-19 20:45 47.624435 -117.535389 311 2391ft 0kts
15-Oct-19 20:46 47.624435 -117.535389 311 2391ft 0kts
15-Oct-19 20:47 47.624435 -117.535389 311 2391ft 0kts
15-Oct-19 20:48 47.624435 -117.535389 311 2391ft 0kts
15-Oct-19 20:49 47.624435 -117.535389 311 2391ft 0kts
15-Oct-19 20:50 47.624435 -117.535389 311 2391ft 0kts
15-Oct-19 20:52 47.624398 -117.535332 333 2391ft 1kts
15-Oct-19 20:53 47.623907 -117.534922 12 2391ft 2kts
15-Oct-19 20:54 47.623718 -117.535089 43 2391ft 0kts
15-Oct-19 20:55 47.623718 -117.535089 43 2391ft 0kts
15-Oct-19 20:56 47.623964 -117.534719 48 2391ft 2kts
15-Oct-19 20:57 47.624240 -117.534264 46 2391ft 6kts
15-Oct-19 20:58 47.625093 -117.532807 87 2391ft 0kts
15-Oct-19 20:59 47.626427 -117.529528 45 2391ft 18kts
15-Oct-19 21:00 47.629732 -117.524552 44 2390ft 15kts
15-Oct-19 21:01 47.632284 -117.520640 64 2391ft 8kts
15-Oct-19 21:02 47.632321 -117.520427 87 2390ft 0kts
15-Oct-19 21:03 47.632321 -117.520427 87 2390ft 0kts
15-Oct-19 21:04 47.631963 -117.519565 135 2390ft 8kts
15-Oct-19 21:05 47.628565 -117.522257 225 2391ft 82kts
15-Oct-19 21:06 47.595111 -117.570552 222 4118ft 196kts
15-Oct-19 21:07 47.549764 -117.640890 224 6608ft 259kts
15-Oct-19 21:08 47.499484 -117.716143 226 10348ft 271kts
15-Oct-19 21:09 47.441454 -117.799945 239 11856ft 306kts
15-Oct-19 21:10 47.451424 -117.917939 280 12064ft 305kts
15-Oct-19 21:10 47.468811 -118.016670 280 13023ft 286kts
15-Oct-19 21:12 47.492637 -118.153045 281 16631ft 313kts
15-Oct-19 21:13 47.515907 -118.277921 280 19839ft 324kts
15-Oct-19 21:13 47.534395 -118.386416 278 22314ft 333kts
15-Oct-19 21:15 47.563205 -118.545910 279 25196ft 355kts
15-Oct-19 21:16 47.588929 -118.687334 278 27597ft 368kts
15-Oct-19 21:16 47.611205 -118.811374 278 29464ft 380kts
15-Oct-19 21:18 47.643085 -118.989920 278 31997ft 392kts
15-Oct-19 21:18 47.666560 -119.122505 278 32070ft 398kts
15-Oct-19 21:19 47.694494 -119.280955 278 32072ft 396kts
15-Oct-19 21:20 47.722144 -119.439413 278 32070ft 397kts
15-Oct-19 21:21 47.739337 -119.599232 270 32069ft 391kts
15-Oct-19 21:22 47.751674 -119.758333 270 31941ft 393kts
15-Oct-19 21:23 47.764285 -119.920018 271 28741ft 390kts
15-Oct-19 21:24 47.776350 -120.078072 272 25385ft 382kts
15-Oct-19 21:25 47.787326 -120.228065 272 24069ft 354kts
15-Oct-19 21:26 47.798190 -120.376254 272 24061ft 357kts
15-Oct-19 21:27 47.808804 -120.523224 272 24062ft 358kts
15-Oct-19 21:28 47.819278 -120.670761 271 24066ft 357kts
15-Oct-19 21:29 47.829171 -120.813851 271 24068ft 356kts
15-Oct-19 21:30 47.838974 -120.961148 271 24066ft 357kts
15-Oct-19 21:31 47.848841 -121.107912 271 23734ft 350kts
15-Oct-19 21:32 47.858234 -121.252746 271 20248ft 358kts
15-Oct-19 21:33 47.867612 -121.398438 271 16966ft 346kts
15-Oct-19 21:34 47.876441 -121.538534 272 13890ft 333kts
15-Oct-19 21:35 47.876581 -121.666105 255 12398ft 282kts
15-Oct-19 21:36 47.860055 -121.773951 255 12041ft 265kts
15-Oct-19 21:37 47.843634 -121.880962 255 11664ft 263kts
15-Oct-19 21:38 47.828303 -121.988760 254 9488ft 269kts
15-Oct-19 21:39 47.815031 -122.095699 255 7916ft 257kts
15-Oct-19 21:40 47.802987 -122.199244 247 6268ft 248kts
15-Oct-19 21:41 47.750772 -122.255596 206 4414ft 239kts
15-Oct-19 21:42 47.691304 -122.279788 190 4010ft 205kts
15-Oct-19 21:43 47.635175 -122.297439 191 3830ft 200kts
15-Oct-19 21:44 47.584300 -122.308055 178 2887ft 160kts
15-Oct-19 21:45 47.540721 -122.307159 178 1976ft 156kts
15-Oct-19 21:46 47.499420 -122.307431 179 1167ft 148kts
15-Oct-19 21:47 47.458550 -122.307812 181 435ft 132kts
15-Oct-19 21:48 47.445880 -122.306926 105 434ft 6kts
15-Oct-19 21:49 47.444140 -122.306347 181 434ft 7kts
15-Oct-19 21:50 47.443602 -122.305111 68 434ft 4kts
15-Oct-19 21:51 47.443565 -122.304634 161 434ft 1kts

Navigation Log

Ident Type
Flight plan parsing failed, navigation log unavailable